»·PEaware :: CAX352 KRNO-KSEA

CAX352 :: KRNO-KSEA

FLIGHT INFORMATION

Flight Status: Arrived
Operator:
California Airlines (website)
More flights by this operator :: More flights under this callsign
Pilot: Dan K. (1691)
Aircraft: BOEING 737-800
(B738)
More flights by this aircraft type
Origin: KRNO Reno/Tahoe Intl
United States
Destination: KSEA Seattle-Tacoma Intl
United States
More flights between these airports :: More routes between these airports
Route: +PVINE3 HALLE WNDEL LKV HAWKZ6
File this flight plan on PilotEdge
Remarks:
Altitude:
(Current/Filed)
36,000ft
Speed:
(Current/Filed)
449kts
Departed: 24-Mar-18 09:28 AM
Arrived: 24-Mar-18 10:55 AM
Distance/Time
Traveled:
489nm/1:26
Distance/Time
To Go:
Arrived

Flight Plot

Page will automatically refresh every two minutes.


Map Options




Map Legend


Flown Route
Filed Route
Departure Airport
Arrival Airport
Navaid (VOR, NDB)
Fix

Horizontal Profiles

Position Reports

Time Latitude Longitude Heading Altitude Ground
Speed
24-Mar-18 09:03 39.507391 -119.774365 180 4423ft 0kts
24-Mar-18 09:04 39.507391 -119.774365 180 4423ft 0kts
24-Mar-18 09:05 39.507391 -119.774365 180 4423ft 0kts
24-Mar-18 09:06 39.507391 -119.774365 180 4423ft 0kts
24-Mar-18 09:07 39.507391 -119.774365 180 4423ft 0kts
24-Mar-18 09:08 39.507391 -119.774365 180 4423ft 0kts
24-Mar-18 09:09 39.507391 -119.774365 180 4423ft 0kts
24-Mar-18 09:10 39.507391 -119.774365 180 4423ft 0kts
24-Mar-18 09:11 39.507521 -119.774362 182 4423ft 2kts
24-Mar-18 09:12 39.508070 -119.774284 179 4423ft 1kts
24-Mar-18 09:13 39.508274 -119.774301 180 4423ft 0kts
24-Mar-18 09:14 39.508274 -119.774301 180 4423ft 0kts
24-Mar-18 09:15 39.508039 -119.774033 100 4423ft 4kts
24-Mar-18 09:16 39.508034 -119.771858 96 4422ft 3kts
24-Mar-18 09:17 39.507455 -119.771513 178 4422ft 5kts
24-Mar-18 09:18 39.504526 -119.771505 179 4423ft 17kts
24-Mar-18 09:19 39.499627 -119.771512 180 4422ft 18kts
24-Mar-18 09:20 39.493427 -119.771538 179 4423ft 28kts
24-Mar-18 09:21 39.485946 -119.771541 179 4423ft 17kts
24-Mar-18 09:22 39.484001 -119.771484 152 4423ft 0kts
24-Mar-18 09:23 39.483804 -119.771113 104 4423ft 4kts
24-Mar-18 09:24 39.483782 -119.770554 87 4423ft 0kts
24-Mar-18 09:25 39.484094 -119.769299 357 4423ft 0kts
24-Mar-18 09:26 39.484266 -119.769306 358 4423ft 12kts
24-Mar-18 09:27 39.512688 -119.768472 357 4690ft 171kts
24-Mar-18 09:28 39.559385 -119.767818 354 6487ft 182kts
24-Mar-18 09:29 39.615907 -119.774430 333 7907ft 242kts
24-Mar-18 09:30 39.681067 -119.812304 331 9968ft 282kts
24-Mar-18 09:31 39.756277 -119.855922 330 11658ft 320kts
24-Mar-18 09:32 39.836990 -119.902414 329 14044ft 334kts
24-Mar-18 09:33 39.919283 -119.949788 329 16121ft 356kts
24-Mar-18 09:34 40.002002 -120.011764 321 18134ft 372kts
24-Mar-18 09:35 40.089060 -120.079515 321 20166ft 388kts
24-Mar-18 09:36 40.160591 -120.134927 321 21746ft 398kts
24-Mar-18 09:37 40.255461 -120.208318 321 23618ft 410kts
24-Mar-18 09:38 40.352847 -120.283583 321 25326ft 422kts
24-Mar-18 09:39 40.446861 -120.322679 348 26702ft 458kts
24-Mar-18 09:40 40.571448 -120.333588 348 28587ft 458kts
24-Mar-18 09:41 40.699338 -120.344798 348 29812ft 471kts
24-Mar-18 09:42 40.830033 -120.356426 348 31061ft 482kts
24-Mar-18 09:43 40.964379 -120.368427 348 32247ft 492kts
24-Mar-18 09:44 41.099608 -120.380582 348 33296ft 503kts
24-Mar-18 09:45 41.212831 -120.390781 348 34133ft 511kts
24-Mar-18 09:46 41.352960 -120.403335 348 35753ft 503kts
24-Mar-18 09:47 41.490378 -120.415684 348 35996ft 504kts
24-Mar-18 09:48 41.627249 -120.428058 348 36000ft 505kts
24-Mar-18 09:49 41.765959 -120.440618 348 36000ft 504kts
24-Mar-18 09:50 41.905215 -120.453279 348 35978ft 505kts
24-Mar-18 09:51 42.041036 -120.479290 330 36006ft 482kts
24-Mar-18 09:52 42.154621 -120.539432 329 35964ft 481kts
24-Mar-18 09:53 42.277648 -120.605496 329 35963ft 482kts
24-Mar-18 09:54 42.385463 -120.663583 328 35975ft 481kts
24-Mar-18 09:55 42.503390 -120.727321 328 35976ft 481kts
24-Mar-18 09:56 42.607545 -120.783827 328 35976ft 481kts
24-Mar-18 09:57 42.730676 -120.850917 328 35977ft 481kts
24-Mar-18 09:58 42.854498 -120.918681 328 35978ft 481kts
24-Mar-18 09:59 42.977760 -120.986466 329 35978ft 479kts
24-Mar-18 10:00 43.099738 -121.053825 330 35965ft 474kts
24-Mar-18 10:01 43.206180 -121.112864 331 35936ft 478kts
24-Mar-18 10:02 43.327976 -121.180661 331 35932ft 475kts
24-Mar-18 10:03 43.449887 -121.248795 332 35933ft 474kts
24-Mar-18 10:04 43.571340 -121.316971 332 35934ft 474kts
24-Mar-18 10:05 43.692527 -121.385291 332 35933ft 474kts
24-Mar-18 10:06 43.813141 -121.453584 332 35935ft 474kts
24-Mar-18 10:07 43.934481 -121.522594 332 35935ft 474kts
24-Mar-18 10:08 44.056100 -121.592075 332 35935ft 474kts
24-Mar-18 10:09 44.140384 -121.640398 332 35927ft 474kts
24-Mar-18 10:10 44.235239 -121.694953 331 35938ft 479kts
24-Mar-18 10:11 44.356127 -121.764727 331 35935ft 480kts
24-Mar-18 10:12 44.476291 -121.834498 331 35932ft 479kts
24-Mar-18 10:13 44.597590 -121.905162 331 35929ft 479kts
24-Mar-18 10:14 44.716598 -121.974753 331 35977ft 479kts
24-Mar-18 10:15 44.836520 -122.045266 331 36025ft 479kts
24-Mar-18 10:16 44.957022 -122.116414 331 36029ft 479kts
24-Mar-18 10:17 45.077542 -122.188062 332 36029ft 483kts
24-Mar-18 10:18 45.156439 -122.235022 333 36023ft 484kts
24-Mar-18 10:19 45.272575 -122.304361 333 36021ft 485kts
24-Mar-18 10:20 45.394423 -122.377531 333 36019ft 482kts
24-Mar-18 10:21 45.512404 -122.448669 333 35891ft 480kts
24-Mar-18 10:22 45.629988 -122.519908 333 34436ft 482kts
24-Mar-18 10:23 45.750409 -122.592346 337 32467ft 481kts
24-Mar-18 10:24 45.878253 -122.626127 347 30569ft 486kts
24-Mar-18 10:25 45.998315 -122.655181 346 28731ft 470kts
24-Mar-18 10:26 46.110873 -122.682452 347 26962ft 455kts
24-Mar-18 10:27 46.161408 -122.692321 348 26145ft 449kts
24-Mar-18 10:28 46.273056 -122.714059 348 24301ft 434kts
24-Mar-18 10:29 46.389557 -122.727665 355 22329ft 422kts
24-Mar-18 10:30 46.502967 -122.730600 354 20349ft 402kts
24-Mar-18 10:31 46.607128 -122.733806 354 18397ft 374kts
24-Mar-18 10:32 46.704368 -122.736962 354 16505ft 344kts
24-Mar-18 10:33 46.795857 -122.726406 24 15021ft 338kts
24-Mar-18 10:34 46.866221 -122.646618 35 13552ft 318kts
24-Mar-18 10:35 46.933945 -122.568891 30 12328ft 306kts
24-Mar-18 10:36 47.011403 -122.529720 14 11378ft 299kts
24-Mar-18 10:37 47.089607 -122.496554 7 10399ft 295kts
24-Mar-18 10:38 47.140054 -122.487102 4 10006ft 287kts
24-Mar-18 10:39 47.219319 -122.473856 3 9615ft 291kts
24-Mar-18 10:40 47.294971 -122.462624 3 8603ft 269kts
24-Mar-18 10:41 47.364712 -122.453009 358 7988ft 257kts
24-Mar-18 10:42 47.435638 -122.453463 357 7032ft 262kts
24-Mar-18 10:43 47.501021 -122.453860 358 6036ft 237kts
24-Mar-18 10:44 47.561683 -122.453592 359 6006ft 235kts
24-Mar-18 10:45 47.612423 -122.453350 359 5522ft 242kts
24-Mar-18 10:46 47.680199 -122.443596 38 4419ft 221kts
24-Mar-18 10:47 47.700543 -122.381109 75 4016ft 198kts
24-Mar-18 10:48 47.696568 -122.315995 162 3232ft 196kts
24-Mar-18 10:49 47.653426 -122.315696 180 3007ft 188kts
24-Mar-18 10:50 47.595450 -122.316803 179 3005ft 179kts
24-Mar-18 10:51 47.557515 -122.317127 179 2304ft 167kts
24-Mar-18 10:52 47.509843 -122.317520 178 1372ft 140kts
24-Mar-18 10:53 47.477800 -122.317817 178 802ft 136kts
24-Mar-18 10:54 47.448816 -122.317981 180 441ft 33kts
24-Mar-18 10:55 47.442231 -122.312801 109 441ft 20kts
24-Mar-18 10:56 47.439004 -122.307477 89 441ft 16kts
24-Mar-18 10:57 47.439254 -122.306441 14 441ft 5kts
24-Mar-18 10:58 47.440439 -122.302031 77 441ft 14kts
24-Mar-18 10:59 47.438297 -122.299383 183 441ft 9kts
24-Mar-18 11:00 47.437765 -122.297591 23 441ft 3kts
24-Mar-18 11:01 47.438155 -122.297504 5 441ft 0kts
24-Mar-18 11:02 47.438155 -122.297504 5 441ft 0kts
24-Mar-18 11:03 47.438155 -122.297504 5 441ft 0kts

Navigation Log

Ident Type
Flight plan parsing failed, navigation log unavailable